sensor_id;sensor_type;location;lat;lon;timestamp;pressure;altitude;pressure_sealevel;temperature;humidity
7918;BME280;4004;42.624;23.386;2022-09-02T00:01:12;93881.19;;;18.75;100.00
7918;BME280;4004;42.624;23.386;2022-09-02T00:03:40;93888.56;;;18.78;100.00
7918;BME280;4004;42.624;23.386;2022-09-02T00:06:08;93887.81;;;18.77;100.00
7918;BME280;4004;42.624;23.386;2022-09-02T00:08:35;93885.09;;;18.74;100.00
7918;BME280;4004;42.624;23.386;2022-09-02T00:11:04;93877.72;;;18.74;100.00
7918;BME280;4004;42.624;23.386;2022-09-02T00:13:33;93873.38;;;18.77;100.00
7918;BME280;4004;42.624;23.386;2022-09-02T00:16:01;93870.44;;;18.91;100.00
7918;BME280;4004;42.624;23.386;2022-09-02T00:18:28;93879.69;;;18.97;100.00
7918;BME280;4004;42.624;23.386;2022-09-02T00:20:55;93876.56;;;18.99;100.00
7918;BME280;4004;42.624;23.386;2022-09-02T00:23:23;93880.25;;;19.12;100.00
7918;BME280;4004;42.624;23.386;2022-09-02T00:25:50;93885.56;;;19.19;100.00
7918;BME280;4004;42.624;23.386;2022-09-02T00:28:17;93887.38;;;19.26;100.00
7918;BME280;4004;42.624;23.386;2022-09-02T00:30:45;93888.81;;;19.34;100.00
7918;BME280;4004;42.624;23.386;2022-09-02T00:33:12;93897.25;;;19.40;100.00
7918;BME280;4004;42.624;23.386;2022-09-02T00:35:43;93896.78;;;19.45;100.00
7918;BME280;4004;42.624;23.386;2022-09-02T00:38:11;93902.94;;;19.49;100.00
7918;BME280;4004;42.624;23.386;2022-09-02T00:40:43;93893.84;;;19.56;100.00
7918;BME280;4004;42.624;23.386;2022-09-02T00:43:10;93899.09;;;19.66;100.00
7918;BME280;4004;42.624;23.386;2022-09-02T00:45:38;93893.03;;;19.59;100.00
7918;BME280;4004;42.624;23.386;2022-09-02T00:48:05;93902.50;;;19.74;100.00
7918;BME280;4004;42.624;23.386;2022-09-02T00:50:35;93907.53;;;19.76;100.00
7918;BME280;4004;42.624;23.386;2022-09-02T00:53:07;93903.63;;;19.77;100.00
7918;BME280;4004;42.624;23.386;2022-09-02T00:55:39;93898.84;;;19.81;100.00
7918;BME280;4004;42.624;23.386;2022-09-02T00:58:12;93894.59;;;19.80;100.00
7918;BME280;4004;42.624;23.386;2022-09-02T01:00:42;93905.44;;;19.83;100.00
7918;BME280;4004;42.624;23.386;2022-09-02T01:03:13;93909.00;;;19.80;100.00
7918;BME280;4004;42.624;23.386;2022-09-02T01:05:45;93903.91;;;19.82;100.00
7918;BME280;4004;42.624;23.386;2022-09-02T01:08:13;93908.94;;;19.84;100.00
7918;BME280;4004;42.624;23.386;2022-09-02T01:10:42;93898.19;;;19.77;100.00
7918;BME280;4004;42.624;23.386;2022-09-02T01:13:11;93869.53;;;19.65;100.00
7918;BME280;4004;42.624;23.386;2022-09-02T01:15:43;93902.78;;;19.80;100.00
7918;BME280;4004;42.624;23.386;2022-09-02T01:18:17;93894.53;;;19.83;100.00
7918;BME280;4004;42.624;23.386;2022-09-02T01:20:45;93898.53;;;19.79;100.00
7918;BME280;4004;42.624;23.386;2022-09-02T01:23:14;93893.75;;;19.83;100.00
7918;BME280;4004;42.624;23.386;2022-09-02T01:25:42;93890.19;;;19.86;100.00
7918;BME280;4004;42.624;23.386;2022-09-02T01:28:12;93887.03;;;19.87;100.00
7918;BME280;4004;42.624;23.386;2022-09-02T01:30:42;93893.63;;;19.90;100.00
7918;BME280;4004;42.624;23.386;2022-09-02T01:33:10;93895.50;;;19.93;100.00
7918;BME280;4004;42.624;23.386;2022-09-02T01:35:37;93899.34;;;19.96;100.00
7918;BME280;4004;42.624;23.386;2022-09-02T01:38:04;93898.19;;;19.97;100.00
7918;BME280;4004;42.624;23.386;2022-09-02T01:40:33;93890.19;;;19.86;100.00
7918;BME280;4004;42.624;23.386;2022-09-02T01:43:04;93888.22;;;19.86;100.00
7918;BME280;4004;42.624;23.386;2022-09-02T01:45:32;93884.25;;;19.91;100.00
7918;BME280;4004;42.624;23.386;2022-09-02T01:47:58;93889.19;;;19.96;100.00
7918;BME280;4004;42.624;23.386;2022-09-02T01:50:26;93881.00;;;19.96;100.00
7918;BME280;4004;42.624;23.386;2022-09-02T01:52:52;93877.13;;;19.77;100.00
7918;BME280;4004;42.624;23.386;2022-09-02T01:55:19;93877.13;;;19.77;100.00
7918;BME280;4004;42.624;23.386;2022-09-02T01:57:48;93868.53;;;19.79;100.00
7918;BME280;4004;42.624;23.386;2022-09-02T02:00:15;93864.66;;;19.76;100.00
7918;BME280;4004;42.624;23.386;2022-09-02T02:02:42;93871.25;;;19.79;100.00
7918;BME280;4004;42.624;23.386;2022-09-02T02:05:09;93860.47;;;19.72;100.00
7918;BME280;4004;42.624;23.386;2022-09-02T02:07:38;93862.47;;;19.67;100.00
7918;BME280;4004;42.624;23.386;2022-09-02T02:10:07;93862.44;;;19.71;100.00
7918;BME280;4004;42.624;23.386;2022-09-02T02:12:34;93853.88;;;19.69;100.00
7918;BME280;4004;42.624;23.386;2022-09-02T02:15:04;93861.84;;;19.60;100.00
7918;BME280;4004;42.624;23.386;2022-09-02T02:17:30;93857.94;;;19.61;100.00
7918;BME280;4004;42.624;23.386;2022-09-02T02:19:57;93871.91;;;19.63;100.00
7918;BME280;4004;42.624;23.386;2022-09-02T02:22:24;93863.44;;;19.57;100.00
7918;BME280;4004;42.624;23.386;2022-09-02T02:24:51;93870.97;;;19.50;100.00
7918;BME280;4004;42.624;23.386;2022-09-02T02:27:18;93865.06;;;19.55;100.00
7918;BME280;4004;42.624;23.386;2022-09-02T02:29:46;93866.88;;;19.41;100.00
7918;BME280;4004;42.624;23.386;2022-09-02T02:32:14;93859.25;;;19.33;100.00
7918;BME280;4004;42.624;23.386;2022-09-02T02:34:42;93861.09;;;19.16;100.00
7918;BME280;4004;42.624;23.386;2022-09-02T02:37:10;93869.63;;;19.18;100.00
7918;BME280;4004;42.624;23.386;2022-09-02T02:39:37;93877.38;;;19.19;100.00
7918;BME280;4004;42.624;23.386;2022-09-02T02:42:05;93879.09;;;19.10;100.00
7918;BME280;4004;42.624;23.386;2022-09-02T02:44:32;93872.25;;;19.01;100.00
7918;BME280;4004;42.624;23.386;2022-09-02T02:46:59;93874.97;;;19.01;100.00
7918;BME280;4004;42.624;23.386;2022-09-02T02:49:27;93864.44;;;19.03;100.00
7918;BME280;4004;42.624;23.386;2022-09-02T02:51:54;93869.38;;;19.09;100.00
7918;BME280;4004;42.624;23.386;2022-09-02T02:54:21;93871.22;;;19.15;100.00
7918;BME280;4004;42.624;23.386;2022-09-02T02:56:48;93873.81;;;19.22;100.00
7918;BME280;4004;42.624;23.386;2022-09-02T02:59:15;93880.16;;;19.16;100.00
7918;BME280;4004;42.624;23.386;2022-09-02T03:01:41;93880.41;;;19.01;100.00
7918;BME280;4004;42.624;23.386;2022-09-02T03:04:08;93890.75;;;18.87;100.00
7918;BME280;4004;42.624;23.386;2022-09-02T03:06:36;93886.44;;;18.89;100.00
7918;BME280;4004;42.624;23.386;2022-09-02T03:09:04;93874.56;;;18.76;100.00
7918;BME280;4004;42.624;23.386;2022-09-02T03:11:31;93877.50;;;18.89;100.00
7918;BME280;4004;42.624;23.386;2022-09-02T03:13:58;93885.28;;;18.90;100.00
7918;BME280;4004;42.624;23.386;2022-09-02T03:16:25;93877.63;;;18.81;100.00
7918;BME280;4004;42.624;23.386;2022-09-02T03:18:52;93879.09;;;18.86;100.00
7918;BME280;4004;42.624;23.386;2022-09-02T03:21:19;93879.22;;;18.79;100.00
7918;BME280;4004;42.624;23.386;2022-09-02T03:23:47;93873.00;;;18.78;100.00
7918;BME280;4004;42.624;23.386;2022-09-02T03:26:16;93872.59;;;18.80;100.00
7918;BME280;4004;42.624;23.386;2022-09-02T03:28:43;93870.16;;;18.86;100.00
7918;BME280;4004;42.624;23.386;2022-09-02T03:31:14;93878.75;;;18.84;100.00
7918;BME280;4004;42.624;23.386;2022-09-02T03:33:41;93879.63;;;18.77;100.00
7918;BME280;4004;42.624;23.386;2022-09-02T03:36:08;93877.41;;;18.69;100.00
7918;BME280;4004;42.624;23.386;2022-09-02T03:38:35;93884.25;;;18.80;100.00
7918;BME280;4004;42.624;23.386;2022-09-02T03:41:03;93880.84;;;18.73;100.00
7918;BME280;4004;42.624;23.386;2022-09-02T03:43:30;93887.41;;;18.79;100.00
7918;BME280;4004;42.624;23.386;2022-09-02T03:45:56;93893.63;;;18.76;100.00
7918;BME280;4004;42.624;23.386;2022-09-02T03:48:23;93896.34;;;18.76;100.00
7918;BME280;4004;42.624;23.386;2022-09-02T03:50:50;93891.66;;;18.76;100.00
7918;BME280;4004;42.624;23.386;2022-09-02T03:53:17;93903.03;;;18.71;100.00
7918;BME280;4004;42.624;23.386;2022-09-02T03:55:44;93911.28;;;18.68;100.00
7918;BME280;4004;42.624;23.386;2022-09-02T03:58:12;93909.72;;;18.67;100.00
7918;BME280;4004;42.624;23.386;2022-09-02T04:00:39;93917.16;;;18.62;100.00
7918;BME280;4004;42.624;23.386;2022-09-02T04:03:06;93918.72;;;18.63;100.00
7918;BME280;4004;42.624;23.386;2022-09-02T04:05:33;93920.59;;;18.67;100.00
7918;BME280;4004;42.624;23.386;2022-09-02T04:07:59;93913.28;;;18.63;100.00
7918;BME280;4004;42.624;23.386;2022-09-02T04:10:26;93926.44;;;18.65;100.00
7918;BME280;4004;42.624;23.386;2022-09-02T04:12:53;93927.13;;;18.73;100.00
7918;BME280;4004;42.624;23.386;2022-09-02T04:15:21;93929.41;;;18.78;100.00
7918;BME280;4004;42.624;23.386;2022-09-02T04:17:49;93930.91;;;18.82;100.00
7918;BME280;4004;42.624;23.386;2022-09-02T04:20:16;93934.75;;;18.85;100.00
7918;BME280;4004;42.624;23.386;2022-09-02T04:22:43;93939.38;;;18.88;100.00
7918;BME280;4004;42.624;23.386;2022-09-02T04:25:10;93944.00;;;18.91;100.00
7918;BME280;4004;42.624;23.386;2022-09-02T04:27:37;93944.69;;;18.99;100.00
7918;BME280;4004;42.624;23.386;2022-09-02T04:30:06;93938.69;;;19.08;100.00
7918;BME280;4004;42.624;23.386;2022-09-02T04:32:35;93942.91;;;19.12;100.00
7918;BME280;4004;42.624;23.386;2022-09-02T04:35:03;93952.84;;;19.22;100.00
7918;BME280;4004;42.624;23.386;2022-09-02T04:37:30;93950.88;;;19.23;100.00
7918;BME280;4004;42.624;23.386;2022-09-02T04:39:57;93927.72;;;19.11;100.00
7918;BME280;4004;42.624;23.386;2022-09-02T04:42:24;93948.59;;;19.21;100.00
7918;BME280;4004;42.624;23.386;2022-09-02T04:44:51;93953.69;;;19.19;100.00
7918;BME280;4004;42.624;23.386;2022-09-02T04:47:18;93956.06;;;19.17;100.00
7918;BME280;4004;42.624;23.386;2022-09-02T04:49:47;93959.00;;;19.26;100.00
7918;BME280;4004;42.624;23.386;2022-09-02T04:52:16;93957.19;;;19.20;100.00
7918;BME280;4004;42.624;23.386;2022-09-02T04:54:43;93953.19;;;19.24;100.00
7918;BME280;4004;42.624;23.386;2022-09-02T04:57:10;93953.59;;;19.23;100.00
7918;BME280;4004;42.624;23.386;2022-09-02T04:59:37;93955.94;;;19.24;100.00
7918;BME280;4004;42.624;23.386;2022-09-02T05:02:04;93961.84;;;19.19;100.00
7918;BME280;4004;42.624;23.386;2022-09-02T05:04:31;93959.25;;;19.12;100.00
7918;BME280;4004;42.624;23.386;2022-09-02T05:06:59;93952.91;;;19.19;100.00
7918;BME280;4004;42.624;23.386;2022-09-02T05:09:27;93959.41;;;19.25;100.00
7918;BME280;4004;42.624;23.386;2022-09-02T05:11:54;93955.03;;;19.31;100.00
7918;BME280;4004;42.624;23.386;2022-09-02T05:14:22;93951.59;;;19.27;100.00
7918;BME280;4004;42.624;23.386;2022-09-02T05:16:49;93949.94;;;19.33;100.00
7918;BME280;4004;42.624;23.386;2022-09-02T05:19:19;93956.25;;;19.30;100.00
7918;BME280;4004;42.624;23.386;2022-09-02T05:21:46;93960.38;;;19.38;100.00
7918;BME280;4004;42.624;23.386;2022-09-02T05:24:15;93962.91;;;19.49;100.00
7918;BME280;4004;42.624;23.386;2022-09-02T05:26:42;93965.88;;;19.58;100.00
7918;BME280;4004;42.624;23.386;2022-09-02T05:29:11;93968.53;;;19.62;100.00
7918;BME280;4004;42.624;23.386;2022-09-02T05:31:38;93957.47;;;19.73;100.00
7918;BME280;4004;42.624;23.386;2022-09-02T05:34:06;93965.16;;;19.78;100.00
7918;BME280;4004;42.624;23.386;2022-09-02T05:36:33;93966.50;;;19.90;100.00
7918;BME280;4004;42.624;23.386;2022-09-02T05:39:00;93955.72;;;19.82;100.00
7918;BME280;4004;42.624;23.386;2022-09-02T05:41:30;93969.38;;;20.02;100.00
7918;BME280;4004;42.624;23.386;2022-09-02T05:43:59;93967.34;;;20.06;100.00
7918;BME280;4004;42.624;23.386;2022-09-02T05:46:27;93966.44;;;20.13;100.00
7918;BME280;4004;42.624;23.386;2022-09-02T05:48:55;93964.28;;;20.24;100.00
7918;BME280;4004;42.624;23.386;2022-09-02T05:51:44;93957.91;;;20.31;100.00
7918;BME280;4004;42.624;23.386;2022-09-02T05:54:14;93941.53;;;20.31;100.00
7918;BME280;4004;42.624;23.386;2022-09-02T05:56:44;93965.94;;;20.58;100.00
7918;BME280;4004;42.624;23.386;2022-09-02T05:59:11;93965.28;;;20.70;100.00
7918;BME280;4004;42.624;23.386;2022-09-02T06:01:39;93969.25;;;20.86;100.00
7918;BME280;4004;42.624;23.386;2022-09-02T06:04:06;93962.00;;;20.96;100.00
7918;BME280;4004;42.624;23.386;2022-09-02T06:06:34;93969.19;;;21.06;100.00
7918;BME280;4004;42.624;23.386;2022-09-02T06:09:03;93971.13;;;21.05;100.00
7918;BME280;4004;42.624;23.386;2022-09-02T06:11:31;93968.22;;;20.96;100.00
7918;BME280;4004;42.624;23.386;2022-09-02T06:13:59;93968.22;;;20.96;100.00
7918;BME280;4004;42.624;23.386;2022-09-02T06:16:26;93966.69;;;20.95;100.00
7918;BME280;4004;42.624;23.386;2022-09-02T06:18:53;93965.06;;;20.98;100.00
7918;BME280;4004;42.624;23.386;2022-09-02T06:21:19;93963.44;;;21.00;100.00
7918;BME280;4004;42.624;23.386;2022-09-02T06:23:47;93970.88;;;21.00;100.00
7918;BME280;4004;42.624;23.386;2022-09-02T06:26:15;93972.41;;;20.84;100.00
7918;BME280;4004;42.624;23.386;2022-09-02T06:28:42;93978.44;;;20.76;100.00
7918;BME280;4004;42.624;23.386;2022-09-02T06:31:13;93978.09;;;20.74;100.00
7918;BME280;4004;42.624;23.386;2022-09-02T06:33:40;93971.34;;;20.62;100.00
7918;BME280;4004;42.624;23.386;2022-09-02T06:36:09;93980.63;;;20.64;100.00
7918;BME280;4004;42.624;23.386;2022-09-02T06:38:38;93981.28;;;20.72;100.00
7918;BME280;4004;42.624;23.386;2022-09-02T06:41:05;93987.34;;;20.80;100.00
7918;BME280;4004;42.624;23.386;2022-09-02T06:43:33;93989.56;;;20.85;100.00
7918;BME280;4004;42.624;23.386;2022-09-02T06:45:59;93985.56;;;20.89;100.00
7918;BME280;4004;42.624;23.386;2022-09-02T06:48:27;93993.31;;;20.91;100.00
7918;BME280;4004;42.624;23.386;2022-09-02T06:50:54;93990.88;;;20.97;100.00
7918;BME280;4004;42.624;23.386;2022-09-02T06:53:21;93995.53;;;20.96;100.00
7918;BME280;4004;42.624;23.386;2022-09-02T06:55:49;93993.16;;;20.98;100.00
7918;BME280;4004;42.624;23.386;2022-09-02T06:58:16;93994.53;;;21.06;100.00
7918;BME280;4004;42.624;23.386;2022-09-02T07:00:43;93986.75;;;21.05;100.00
7918;BME280;4004;42.624;23.386;2022-09-02T07:03:10;93992.50;;;21.10;100.00
7918;BME280;4004;42.624;23.386;2022-09-02T07:06:02;93947.75;;;20.88;100.00
7918;BME280;4004;42.624;23.386;2022-09-02T07:08:30;93999.19;;;21.26;100.00
7918;BME280;4004;42.624;23.386;2022-09-02T07:10:57;94001.41;;;21.31;100.00
7918;BME280;4004;42.624;23.386;2022-09-02T07:13:24;94005.94;;;21.38;100.00
7918;BME280;4004;42.624;23.386;2022-09-02T07:15:51;93997.72;;;21.38;100.00
7918;BME280;4004;42.624;23.386;2022-09-02T07:18:18;93999.53;;;21.28;100.00
7918;BME280;4004;42.624;23.386;2022-09-02T07:20:46;93998.75;;;21.27;100.00
7918;BME280;4004;42.624;23.386;2022-09-02T07:23:14;94009.53;;;21.35;100.00
7918;BME280;4004;42.624;23.386;2022-09-02T07:25:42;94007.41;;;21.42;100.00
7918;BME280;4004;42.624;23.386;2022-09-02T07:28:10;94005.59;;;21.52;100.00
7918;BME280;4004;42.624;23.386;2022-09-02T07:30:40;94009.19;;;21.65;100.00
7918;BME280;4004;42.624;23.386;2022-09-02T07:33:08;94021.59;;;21.70;100.00
7918;BME280;4004;42.624;23.386;2022-09-02T07:35:36;94018.75;;;21.73;100.00
7918;BME280;4004;42.624;23.386;2022-09-02T07:38:03;94015.94;;;21.77;100.00
7918;BME280;4004;42.624;23.386;2022-09-02T07:40:32;94011.41;;;21.70;100.00
7918;BME280;4004;42.624;23.386;2022-09-02T07:43:00;94020.31;;;21.75;100.00
7918;BME280;4004;42.624;23.386;2022-09-02T07:45:27;94016.44;;;21.72;100.00
7918;BME280;4004;42.624;23.386;2022-09-02T07:47:54;94014.03;;;21.74;100.00
7918;BME280;4004;42.624;23.386;2022-09-02T07:50:22;94013.28;;;21.73;100.00
7918;BME280;4004;42.624;23.386;2022-09-02T07:52:52;94010.47;;;21.77;99.81
7918;BME280;4004;42.624;23.386;2022-09-02T07:55:19;94015.06;;;21.80;98.99
7918;BME280;4004;42.624;23.386;2022-09-02T07:57:47;94016.28;;;21.79;97.76
7918;BME280;4004;42.624;23.386;2022-09-02T08:00:15;94025.66;;;21.78;99.06
7918;BME280;4004;42.624;23.386;2022-09-02T08:02:44;94028.06;;;21.76;98.77
7918;BME280;4004;42.624;23.386;2022-09-02T08:05:11;94034.56;;;21.82;98.15
7918;BME280;4004;42.624;23.386;2022-09-02T08:07:39;94034.03;;;21.87;97.40
7918;BME280;4004;42.624;23.386;2022-09-02T08:10:07;94032.25;;;21.97;96.90
7918;BME280;4004;42.624;23.386;2022-09-02T08:12:37;94034.88;;;22.01;96.67
7918;BME280;4004;42.624;23.386;2022-09-02T08:15:07;94037.09;;;22.06;96.17
7918;BME280;4004;42.624;23.386;2022-09-02T08:17:35;94032.31;;;22.10;96.08
7918;BME280;4004;42.624;23.386;2022-09-02T08:20:06;94041.72;;;22.09;95.64
7918;BME280;4004;42.624;23.386;2022-09-02T08:22:33;94041.28;;;22.10;96.10
7918;BME280;4004;42.624;23.386;2022-09-02T08:25:00;94044.78;;;22.11;96.36
7918;BME280;4004;42.624;23.386;2022-09-02T08:27:27;94039.66;;;22.13;96.70
7918;BME280;4004;42.624;23.386;2022-09-02T08:29:54;94034.72;;;22.08;97.64
7918;BME280;4004;42.624;23.386;2022-09-02T08:32:22;94031.47;;;21.97;98.57
7918;BME280;4004;42.624;23.386;2022-09-02T08:34:49;94036.16;;;21.96;98.40
7918;BME280;4004;42.624;23.386;2022-09-02T08:37:16;94030.53;;;21.87;100.00
7918;BME280;4004;42.624;23.386;2022-09-02T08:39:43;94035.94;;;21.90;100.00
7918;BME280;4004;42.624;23.386;2022-09-02T08:42:16;94002.50;;;21.83;100.00
7918;BME280;4004;42.624;23.386;2022-09-02T08:44:45;94026.50;;;22.08;99.57
7918;BME280;4004;42.624;23.386;2022-09-02T08:47:15;94026.31;;;22.15;98.12
7918;BME280;4004;42.624;23.386;2022-09-02T08:49:47;94029.22;;;22.24;97.77
7918;BME280;4004;42.624;23.386;2022-09-02T08:52:23;94023.00;;;22.37;97.07
7918;BME280;4004;42.624;23.386;2022-09-02T08:54:52;94016.88;;;22.32;96.94
7918;BME280;4004;42.624;23.386;2022-09-02T08:57:20;94019.41;;;22.40;97.28
7918;BME280;4004;42.624;23.386;2022-09-02T08:59:50;94028.34;;;22.27;99.99
7918;BME280;4004;42.624;23.386;2022-09-02T09:02:23;94019.69;;;22.29;99.01
7918;BME280;4004;42.624;23.386;2022-09-02T09:05:06;94022.34;;;22.32;99.03
7918;BME280;4004;42.624;23.386;2022-09-02T09:07:42;94021.66;;;22.28;98.58
7918;BME280;4004;42.624;23.386;2022-09-02T09:10:19;94017.09;;;22.38;98.42
7918;BME280;4004;42.624;23.386;2022-09-02T09:13:00;94018.88;;;22.45;98.85
7918;BME280;4004;42.624;23.386;2022-09-02T09:15:36;94018.88;;;22.45;98.08
7918;BME280;4004;42.624;23.386;2022-09-02T09:18:07;94016.13;;;22.45;98.57
7918;BME280;4004;42.624;23.386;2022-09-02T09:20:39;94014.38;;;22.51;98.56
7918;BME280;4004;42.624;23.386;2022-09-02T09:23:17;94010.31;;;22.43;99.17
7918;BME280;4004;42.624;23.386;2022-09-02T09:25:47;94012.31;;;22.55;97.58
7918;BME280;4004;42.624;23.386;2022-09-02T09:28:14;94006.97;;;22.64;97.56
7918;BME280;4004;42.624;23.386;2022-09-02T09:30:41;94003.91;;;22.75;96.87
7918;BME280;4004;42.624;23.386;2022-09-02T09:33:14;94006.34;;;22.86;95.72
7918;BME280;4004;42.624;23.386;2022-09-02T09:35:51;94010.28;;;22.85;96.74
7918;BME280;4004;42.624;23.386;2022-09-02T09:38:28;94005.38;;;22.92;95.29
7918;BME280;4004;42.624;23.386;2022-09-02T09:41:13;94003.81;;;22.91;95.58
7918;BME280;4004;42.624;23.386;2022-09-02T09:43:42;93979.19;;;23.04;92.76
7918;BME280;4004;42.624;23.386;2022-09-02T09:46:24;94002.53;;;23.34;91.69
7918;BME280;4004;42.624;23.386;2022-09-02T09:48:52;93996.16;;;23.50;90.57
7918;BME280;4004;42.624;23.386;2022-09-02T09:51:20;93998.44;;;23.77;88.16
7918;BME280;4004;42.624;23.386;2022-09-02T09:53:47;94007.19;;;23.85;86.91
7918;BME280;4004;42.624;23.386;2022-09-02T09:56:26;94000.72;;;23.66;84.58
7918;BME280;4004;42.624;23.386;2022-09-02T09:58:54;94007.88;;;23.64;84.13
7918;BME280;4004;42.624;23.386;2022-09-02T10:01:23;94014.94;;;23.39;86.91
7918;BME280;4004;42.624;23.386;2022-09-02T10:03:52;94011.44;;;23.26;88.84
7918;BME280;4004;42.624;23.386;2022-09-02T10:06:23;94011.22;;;23.33;89.66
7918;BME280;4004;42.624;23.386;2022-09-02T10:08:55;94019.84;;;23.57;89.19
7918;BME280;4004;42.624;23.386;2022-09-02T10:11:25;94016.03;;;23.54;89.65
7918;BME280;4004;42.624;23.386;2022-09-02T10:13:56;94017.66;;;23.52;91.03
7918;BME280;4004;42.624;23.386;2022-09-02T10:16:36;94007.88;;;23.64;89.78
7918;BME280;4004;42.624;23.386;2022-09-02T10:19:13;94008.06;;;23.82;87.63
7918;BME280;4004;42.624;23.386;2022-09-02T10:22:12;94009.63;;;24.05;86.88
7918;BME280;4004;42.624;23.386;2022-09-02T10:24:58;94009.72;;;23.92;86.43
7918;BME280;4004;42.624;23.386;2022-09-02T10:27:36;94009.13;;;23.97;86.23
7918;BME280;4004;42.624;23.386;2022-09-02T10:30:08;94006.31;;;23.88;87.82
7918;BME280;4004;42.624;23.386;2022-09-02T10:32:50;94000.50;;;23.86;87.59
7918;BME280;4004;42.624;23.386;2022-09-02T10:35:24;94001.66;;;23.50;88.59
7918;BME280;4004;42.624;23.386;2022-09-02T10:38:08;94002.06;;;23.49;90.33
7918;BME280;4004;42.624;23.386;2022-09-02T10:40:42;94003.03;;;23.68;87.45
7918;BME280;4004;42.624;23.386;2022-09-02T10:43:21;93978.78;;;23.66;87.28
7918;BME280;4004;42.624;23.386;2022-09-02T10:45:54;94000.69;;;23.92;86.76
7918;BME280;4004;42.624;23.386;2022-09-02T10:48:41;93982.28;;;23.79;88.11
7918;BME280;4004;42.624;23.386;2022-09-02T10:51:15;94001.19;;;24.12;87.41
7918;BME280;4004;42.624;23.386;2022-09-02T10:53:56;94002.69;;;24.48;85.14
7918;BME280;4004;42.624;23.386;2022-09-02T10:56:29;94006.22;;;24.80;82.79
7918;BME280;4004;42.624;23.386;2022-09-02T10:59:03;94012.44;;;25.02;78.70
7918;BME280;4004;42.624;23.386;2022-09-02T11:01:36;94002.69;;;24.70;79.74
7918;BME280;4004;42.624;23.386;2022-09-02T11:04:08;93995.13;;;24.39;81.41
7918;BME280;4004;42.624;23.386;2022-09-02T11:06:40;93997.00;;;24.30;80.89
7918;BME280;4004;42.624;23.386;2022-09-02T11:09:13;93992.31;;;24.30;81.95
7918;BME280;4004;42.624;23.386;2022-09-02T11:11:50;93998.50;;;24.44;81.67
7918;BME280;4004;42.624;23.386;2022-09-02T11:14:23;93992.88;;;24.25;82.38
7918;BME280;4004;42.624;23.386;2022-09-02T11:16:54;93986.09;;;24.17;81.27
7918;BME280;4004;42.624;23.386;2022-09-02T11:19:28;93987.28;;;23.94;83.50
7918;BME280;4004;42.624;23.386;2022-09-02T11:22:00;93983.69;;;23.84;85.74
7918;BME280;4004;42.624;23.386;2022-09-02T11:24:35;93983.81;;;23.81;85.85
7918;BME280;4004;42.624;23.386;2022-09-02T11:27:08;93975.91;;;23.83;85.06
7918;BME280;4004;42.624;23.386;2022-09-02T11:29:45;93976.50;;;23.99;83.85
7918;BME280;4004;42.624;23.386;2022-09-02T11:32:25;93982.91;;;24.18;85.17
7918;BME280;4004;42.624;23.386;2022-09-02T11:34:54;93978.31;;;24.15;84.35
7918;BME280;4004;42.624;23.386;2022-09-02T11:37:28;93976.88;;;23.89;85.18
7918;BME280;4004;42.624;23.386;2022-09-02T11:40:01;93963.06;;;23.79;86.15
7918;BME280;4004;42.624;23.386;2022-09-02T11:42:56;93959.00;;;23.71;86.74
7918;BME280;4004;42.624;23.386;2022-09-02T11:46:04;93949.09;;;23.87;86.23
7918;BME280;4004;42.624;23.386;2022-09-02T11:49:01;93948.97;;;23.90;86.30
7918;BME280;4004;42.624;23.386;2022-09-02T11:54:35;93942.22;;;24.04;85.43
7918;BME280;4004;42.624;23.386;2022-09-02T11:57:05;93936.47;;;24.11;84.74
7918;BME280;4004;42.624;23.386;2022-09-02T12:00:02;93947.44;;;24.33;83.85
7918;BME280;4004;42.624;23.386;2022-09-02T12:02:33;93945.78;;;24.36;82.48
7918;BME280;4004;42.624;23.386;2022-09-02T12:08:09;93953.88;;;24.52;82.95
7918;BME280;4004;42.624;23.386;2022-09-02T12:10:57;93958.72;;;24.79;81.37
7918;BME280;4004;42.624;23.386;2022-09-02T12:13:36;93957.53;;;24.90;80.09
7918;BME280;4004;42.624;23.386;2022-09-02T12:16:34;93959.28;;;25.06;79.30
7918;BME280;4004;42.624;23.386;2022-09-02T12:25:37;93947.84;;;25.07;78.50
7918;BME280;4004;42.624;23.386;2022-09-02T12:28:20;93938.22;;;25.12;77.52
7918;BME280;4004;42.624;23.386;2022-09-02T12:31:14;93913.75;;;25.05;77.27
7918;BME280;4004;42.624;23.386;2022-09-02T12:33:44;93941.81;;;25.21;77.09
7918;BME280;4004;42.624;23.386;2022-09-02T12:36:44;93937.09;;;24.91;78.75
7918;BME280;4004;42.624;23.386;2022-09-02T12:39:50;93927.34;;;24.68;79.57
7918;BME280;4004;42.624;23.386;2022-09-02T12:42:24;93923.31;;;24.81;79.75
7918;BME280;4004;42.624;23.386;2022-09-02T12:45:00;93924.47;;;24.71;79.90
7918;BME280;4004;42.624;23.386;2022-09-02T12:47:39;93917.84;;;24.91;78.73
7918;BME280;4004;42.624;23.386;2022-09-02T12:50:19;93914.34;;;24.99;78.45
7918;BME280;4004;42.624;23.386;2022-09-02T12:52:49;93908.84;;;24.90;78.71
7918;BME280;4004;42.624;23.386;2022-09-02T12:55:22;93919.00;;;24.80;79.33
7918;BME280;4004;42.624;23.386;2022-09-02T12:57:51;93913.78;;;24.73;78.85
7918;BME280;4004;42.624;23.386;2022-09-02T13:00:31;93907.19;;;24.61;79.99
7918;BME280;4004;42.624;23.386;2022-09-02T13:03:14;93908.41;;;24.70;79.92
7918;BME280;4004;42.624;23.386;2022-09-02T13:05:53;93911.31;;;24.66;78.71
7918;BME280;4004;42.624;23.386;2022-09-02T13:08:44;93902.59;;;24.36;80.52
7918;BME280;4004;42.624;23.386;2022-09-02T13:11:51;93906.47;;;24.17;82.73
7918;BME280;4004;42.624;23.386;2022-09-02T13:14:46;93905.06;;;24.12;83.03
7918;BME280;4004;42.624;23.386;2022-09-02T13:17:26;93917.28;;;24.20;83.20
7918;BME280;4004;42.624;23.386;2022-09-02T13:20:22;93916.75;;;24.04;84.49
7918;BME280;4004;42.624;23.386;2022-09-02T13:23:12;93903.38;;;23.58;91.76
7918;BME280;4004;42.624;23.386;2022-09-02T13:31:57;93902.97;;;22.48;100.00
7918;BME280;4004;42.624;23.386;2022-09-02T13:34:27;93918.84;;;22.11;100.00
7918;BME280;4004;42.624;23.386;2022-09-02T13:36:55;93904.50;;;21.78;100.00
7918;BME280;4004;42.624;23.386;2022-09-02T13:39:24;93902.88;;;21.51;100.00
7918;BME280;4004;42.624;23.386;2022-09-02T13:41:52;93897.31;;;21.38;100.00
7918;BME280;4004;42.624;23.386;2022-09-02T13:44:20;93911.34;;;21.24;100.00